sensor_id;sensor_type;location;lat;lon;timestamp;pressure;altitude;pressure_sealevel;temperature;humidity
29383;BME280;16365;51.598;7.668;2023-01-28T00:01:31;102159.38;;;9.10;47.63
29383;BME280;16365;51.598;7.668;2023-01-28T00:03:57;102157.44;;;9.10;47.77
29383;BME280;16365;51.598;7.668;2023-01-28T00:06:24;102154.66;;;9.10;47.15
29383;BME280;16365;51.598;7.668;2023-01-28T00:08:50;102152.44;;;9.12;47.58
29383;BME280;16365;51.598;7.668;2023-01-28T00:11:17;102146.06;;;9.12;47.09
29383;BME280;16365;51.598;7.668;2023-01-28T00:13:43;102146.06;;;9.12;47.16
29383;BME280;16365;51.598;7.668;2023-01-28T00:16:09;102151.31;;;9.13;47.28
29383;BME280;16365;51.598;7.668;2023-01-28T00:18:36;102150.50;;;9.13;47.79
29383;BME280;16365;51.598;7.668;2023-01-28T00:21:10;102150.50;;;9.13;47.28
29383;BME280;16365;51.598;7.668;2023-01-28T00:23:37;102150.50;;;9.13;47.81
29383;BME280;16365;51.598;7.668;2023-01-28T00:26:05;102151.91;;;9.10;46.82
29383;BME280;16365;51.598;7.668;2023-01-28T00:28:32;102149.41;;;9.09;47.29
29383;BME280;16365;51.598;7.668;2023-01-28T00:31:05;102154.09;;;9.08;46.92
29383;BME280;16365;51.598;7.668;2023-01-28T00:33:31;102150.50;;;9.08;46.92
29383;BME280;16365;51.598;7.668;2023-01-28T00:35:58;102151.91;;;9.05;46.60
29383;BME280;16365;51.598;7.668;2023-01-28T00:38:26;102148.34;;;9.05;46.56
29383;BME280;16365;51.598;7.668;2023-01-28T00:40:52;102147.47;;;9.04;46.51
29383;BME280;16365;51.598;7.668;2023-01-28T00:43:19;102147.75;;;9.02;46.48
29383;BME280;16365;51.598;7.668;2023-01-28T00:45:45;102149.72;;;9.02;47.49
29383;BME280;16365;51.598;7.668;2023-01-28T00:48:15;102146.94;;;9.02;46.77
29383;BME280;16365;51.598;7.668;2023-01-28T00:50:41;102156.88;;;9.03;46.72
29383;BME280;16365;51.598;7.668;2023-01-28T00:53:08;102156.63;;;9.05;46.61
29383;BME280;16365;51.598;7.668;2023-01-28T00:55:34;102165.19;;;9.03;46.23
29383;BME280;16365;51.598;7.668;2023-01-28T00:58:00;102159.66;;;9.03;45.95
29383;BME280;16365;51.598;7.668;2023-01-28T01:00:27;102170.72;;;9.03;46.86
29383;BME280;16365;51.598;7.668;2023-01-28T01:02:53;102172.66;;;9.02;47.09
29383;BME280;16365;51.598;7.668;2023-01-28T01:05:20;102164.66;;;9.01;46.33
29383;BME280;16365;51.598;7.668;2023-01-28T01:07:46;102159.41;;;8.99;46.40
29383;BME280;16365;51.598;7.668;2023-01-28T01:10:14;102158.56;;;8.99;47.02
29383;BME280;16365;51.598;7.668;2023-01-28T01:12:41;102159.41;;;8.99;46.75
29383;BME280;16365;51.598;7.668;2023-01-28T01:15:08;102153.88;;;8.99;46.84
29383;BME280;16365;51.598;7.668;2023-01-28T01:17:36;102159.41;;;8.99;46.53
29383;BME280;16365;51.598;7.668;2023-01-28T01:20:03;102153.59;;;9.01;46.60
29383;BME280;16365;51.598;7.668;2023-01-28T01:22:33;102156.88;;;9.03;47.02
29383;BME280;16365;51.598;7.668;2023-01-28T01:25:01;102161.31;;;9.04;46.46
29383;BME280;16365;51.598;7.668;2023-01-28T01:27:29;102161.31;;;9.04;47.21
29383;BME280;16365;51.598;7.668;2023-01-28T01:29:55;102172.13;;;9.06;46.34
29383;BME280;16365;51.598;7.668;2023-01-28T01:32:22;102170.16;;;9.06;46.32
29383;BME280;16365;51.598;7.668;2023-01-28T01:34:48;102163.81;;;9.06;46.85
29383;BME280;16365;51.598;7.668;2023-01-28T01:37:14;102172.13;;;9.06;46.11
29383;BME280;16365;51.598;7.668;2023-01-28T01:39:41;102166.00;;;9.04;46.61
29383;BME280;16365;51.598;7.668;2023-01-28T01:42:11;102168.25;;;9.01;46.09
29383;BME280;16365;51.598;7.668;2023-01-28T01:47:24;102173.25;;;8.99;46.21
29383;BME280;16365;51.598;7.668;2023-01-28T01:49:52;102172.69;;;8.97;46.18
29383;BME280;16365;51.598;7.668;2023-01-28T01:52:20;102177.38;;;8.97;47.28
29383;BME280;16365;51.598;7.668;2023-01-28T01:54:49;102175.75;;;8.96;46.74
29383;BME280;16365;51.598;7.668;2023-01-28T01:57:21;102178.50;;;8.96;46.69
29383;BME280;16365;51.598;7.668;2023-01-28T01:59:47;102171.03;;;8.91;46.20
29383;BME280;16365;51.598;7.668;2023-01-28T02:02:14;102176.28;;;8.93;45.99
29383;BME280;16365;51.598;7.668;2023-01-28T02:04:41;102178.53;;;8.91;45.94
29383;BME280;16365;51.598;7.668;2023-01-28T02:07:13;102176.56;;;8.91;46.13
29383;BME280;16365;51.598;7.668;2023-01-28T02:09:40;102171.03;;;8.91;46.63
29383;BME280;16365;51.598;7.668;2023-01-28T02:12:14;102180.47;;;8.90;46.22
29383;BME280;16365;51.598;7.668;2023-01-28T02:14:44;102184.88;;;8.91;46.64
29383;BME280;16365;51.598;7.668;2023-01-28T02:17:12;102192.06;;;8.92;46.29
29383;BME280;16365;51.598;7.668;2023-01-28T02:19:43;102186.25;;;8.94;46.35
29383;BME280;16365;51.598;7.668;2023-01-28T02:22:15;102180.69;;;8.94;46.41
29383;BME280;16365;51.598;7.668;2023-01-28T02:24:52;102181.28;;;8.96;46.10
29383;BME280;16365;51.598;7.668;2023-01-28T02:27:22;102185.97;;;8.95;46.29
29383;BME280;16365;51.598;7.668;2023-01-28T02:32:54;102192.03;;;8.97;46.38
29383;BME280;16365;51.598;7.668;2023-01-28T02:38:08;102203.09;;;8.97;46.97
29383;BME280;16365;51.598;7.668;2023-01-28T02:40:37;102196.75;;;8.97;46.33
29383;BME280;16365;51.598;7.668;2023-01-28T02:43:44;102200.34;;;8.97;46.63
29383;BME280;16365;51.598;7.668;2023-01-28T02:46:16;102199.81;;;8.95;46.44
29383;BME280;16365;51.598;7.668;2023-01-28T02:49:03;102197.31;;;8.94;47.30
29383;BME280;16365;51.598;7.668;2023-01-28T02:51:40;102199.81;;;8.90;46.73
29383;BME280;16365;51.598;7.668;2023-01-28T02:56:44;102203.13;;;8.87;46.53
29383;BME280;16365;51.598;7.668;2023-01-28T02:59:25;102193.19;;;8.86;47.49
29383;BME280;16365;51.598;7.668;2023-01-28T03:04:43;102188.78;;;8.80;46.41
29383;BME280;16365;51.598;7.668;2023-01-28T03:07:13;102190.69;;;8.80;47.17
29383;BME280;16365;51.598;7.668;2023-01-28T03:09:40;102195.97;;;8.76;46.84
29383;BME280;16365;51.598;7.668;2023-01-28T03:12:13;102192.66;;;8.74;47.00
29383;BME280;16365;51.598;7.668;2023-01-28T03:15:11;102188.53;;;8.71;47.05
29383;BME280;16365;51.598;7.668;2023-01-28T03:18:09;102187.13;;;8.69;47.62
29383;BME280;16365;51.598;7.668;2023-01-28T03:21:02;102189.34;;;8.67;47.28
29383;BME280;16365;51.598;7.668;2023-01-28T03:26:37;102175.25;;;8.63;47.50
29383;BME280;16365;51.598;7.668;2023-01-28T03:29:24;102176.06;;;8.64;47.14
29383;BME280;16365;51.598;7.668;2023-01-28T03:32:10;102178.84;;;8.64;46.59
29383;BME280;16365;51.598;7.668;2023-01-28T03:34:56;102178.56;;;8.65;47.13
29383;BME280;16365;51.598;7.668;2023-01-28T03:37:42;102178.84;;;8.64;47.45
29383;BME280;16365;51.598;7.668;2023-01-28T03:40:08;102176.06;;;8.64;47.68
29383;BME280;16365;51.598;7.668;2023-01-28T03:42:35;102183.84;;;8.62;47.40
29383;BME280;16365;51.598;7.668;2023-01-28T03:45:02;102182.19;;;8.61;47.58
29383;BME280;16365;51.598;7.668;2023-01-28T03:47:30;102191.31;;;8.61;47.07
29383;BME280;16365;51.598;7.668;2023-01-28T03:49:57;102196.00;;;8.61;47.74
29383;BME280;16365;51.598;7.668;2023-01-28T03:52:26;102189.09;;;8.58;47.10
29383;BME280;16365;51.598;7.668;2023-01-28T03:54:52;102200.44;;;8.57;46.89
29383;BME280;16365;51.598;7.668;2023-01-28T03:57:20;102189.91;;;8.54;46.95
29383;BME280;16365;51.598;7.668;2023-01-28T03:59:46;102198.75;;;8.56;47.24
29383;BME280;16365;51.598;7.668;2023-01-28T04:02:15;102201.50;;;8.56;47.38
29383;BME280;16365;51.598;7.668;2023-01-28T04:04:42;102201.25;;;8.57;47.43
29383;BME280;16365;51.598;7.668;2023-01-28T04:07:08;102200.13;;;8.58;47.21
29383;BME280;16365;51.598;7.668;2023-01-28T04:09:39;102207.06;;;8.61;46.66
29383;BME280;16365;51.598;7.668;2023-01-28T04:12:06;102205.94;;;8.62;47.24
29383;BME280;16365;51.598;7.668;2023-01-28T04:14:32;102206.78;;;8.62;46.26
29383;BME280;16365;51.598;7.668;2023-01-28T04:16:59;102200.97;;;8.64;47.30
29383;BME280;16365;51.598;7.668;2023-01-28T04:19:25;102202.59;;;8.65;46.53
29383;BME280;16365;51.598;7.668;2023-01-28T04:21:52;102196.53;;;8.63;46.90
29383;BME280;16365;51.598;7.668;2023-01-28T04:24:22;102210.38;;;8.63;46.47
29383;BME280;16365;51.598;7.668;2023-01-28T04:26:48;102215.34;;;8.61;46.46
29383;BME280;16365;51.598;7.668;2023-01-28T04:29:15;102213.97;;;8.58;47.12
29383;BME280;16365;51.598;7.668;2023-01-28T04:31:41;102208.16;;;8.55;46.63
29383;BME280;16365;51.598;7.668;2023-01-28T04:34:08;102216.72;;;8.53;47.14
29383;BME280;16365;51.598;7.668;2023-01-28T04:36:35;102217.56;;;8.48;47.33
29383;BME280;16365;51.598;7.668;2023-01-28T04:39:01;102219.50;;;8.43;46.44
29383;BME280;16365;51.598;7.668;2023-01-28T04:41:27;102223.09;;;8.38;46.25
29383;BME280;16365;51.598;7.668;2023-01-28T04:43:54;102225.81;;;8.33;46.91
29383;BME280;16365;51.598;7.668;2023-01-28T04:46:21;102224.72;;;8.29;46.98
29383;BME280;16365;51.598;7.668;2023-01-28T04:48:47;102223.88;;;8.23;46.58
29383;BME280;16365;51.598;7.668;2023-01-28T04:51:13;102233.00;;;8.19;47.05
29383;BME280;16365;51.598;7.668;2023-01-28T04:53:40;102233.81;;;8.14;46.27
29383;BME280;16365;51.598;7.668;2023-01-28T04:56:06;102232.97;;;8.09;45.84
29383;BME280;16365;51.598;7.668;2023-01-28T04:58:32;102236.28;;;8.06;46.04
29383;BME280;16365;51.598;7.668;2023-01-28T05:00:58;102236.84;;;8.03;46.75
29383;BME280;16365;51.598;7.668;2023-01-28T05:03:26;102224.69;;;7.98;46.92
29383;BME280;16365;51.598;7.668;2023-01-28T05:05:52;102225.75;;;7.97;46.80
29383;BME280;16365;51.598;7.668;2023-01-28T05:08:19;102227.97;;;7.95;47.16
29383;BME280;16365;51.598;7.668;2023-01-28T05:10:45;102219.16;;;7.93;46.46
29383;BME280;16365;51.598;7.668;2023-01-28T05:13:12;102221.63;;;7.95;46.60
29383;BME280;16365;51.598;7.668;2023-01-28T05:15:38;102224.69;;;7.93;46.45
29383;BME280;16365;51.598;7.668;2023-01-28T05:18:04;102224.69;;;7.93;46.81
29383;BME280;16365;51.598;7.668;2023-01-28T05:20:31;102221.63;;;7.95;46.53
29383;BME280;16365;51.598;7.668;2023-01-28T05:22:57;102231.56;;;7.96;46.42
29383;BME280;16365;51.598;7.668;2023-01-28T05:25:23;102220.53;;;7.96;46.82
29383;BME280;16365;51.598;7.668;2023-01-28T05:27:50;102230.47;;;7.97;46.36
29383;BME280;16365;51.598;7.668;2023-01-28T05:30:17;102221.94;;;7.98;46.63
29383;BME280;16365;51.598;7.668;2023-01-28T05:32:44;102222.75;;;7.99;46.18
29383;BME280;16365;51.598;7.668;2023-01-28T05:35:11;102226.34;;;7.99;46.37
29383;BME280;16365;51.598;7.668;2023-01-28T05:37:37;102233.50;;;8.01;46.34
29383;BME280;16365;51.598;7.668;2023-01-28T05:40:03;102227.16;;;8.00;47.13
29383;BME280;16365;51.598;7.668;2023-01-28T05:42:30;102230.75;;;8.01;46.51
29383;BME280;16365;51.598;7.668;2023-01-28T05:44:56;102229.63;;;8.02;46.81
29383;BME280;16365;51.598;7.668;2023-01-28T05:47:23;102239.63;;;8.03;46.86
29383;BME280;16365;51.598;7.668;2023-01-28T05:49:49;102236.00;;;8.02;46.03
29383;BME280;16365;51.598;7.668;2023-01-28T05:52:15;102246.78;;;8.04;46.13
29383;BME280;16365;51.598;7.668;2023-01-28T05:54:42;102241.25;;;8.04;46.16
29383;BME280;16365;51.598;7.668;2023-01-28T05:57:08;102242.91;;;8.05;46.44
29383;BME280;16365;51.598;7.668;2023-01-28T05:59:34;102252.03;;;8.05;46.04
29383;BME280;16365;51.598;7.668;2023-01-28T06:02:01;102247.34;;;8.06;46.43
29383;BME280;16365;51.598;7.668;2023-01-28T06:04:27;102250.91;;;8.06;46.13
29383;BME280;16365;51.598;7.668;2023-01-28T06:06:54;102250.91;;;8.06;46.46
29383;BME280;16365;51.598;7.668;2023-01-28T06:09:20;102248.97;;;8.07;46.27
29383;BME280;16365;51.598;7.668;2023-01-28T06:11:46;102253.69;;;8.06;46.57
29383;BME280;16365;51.598;7.668;2023-01-28T06:14:13;102248.16;;;8.06;46.00
29383;BME280;16365;51.598;7.668;2023-01-28T06:16:40;102249.81;;;8.07;46.96
29383;BME280;16365;51.598;7.668;2023-01-28T06:19:06;102245.41;;;8.06;46.75
29383;BME280;16365;51.598;7.668;2023-01-28T06:21:33;102242.09;;;8.04;46.27
29383;BME280;16365;51.598;7.668;2023-01-28T06:23:59;102251.19;;;8.05;46.17
29383;BME280;16365;51.598;7.668;2023-01-28T06:26:26;102248.44;;;8.05;46.64
29383;BME280;16365;51.598;7.668;2023-01-28T06:28:52;102248.72;;;8.03;46.01
29383;BME280;16365;51.598;7.668;2023-01-28T06:31:18;102246.50;;;8.05;46.22
29383;BME280;16365;51.598;7.668;2023-01-28T06:33:45;102246.50;;;8.05;45.79
29383;BME280;16365;51.598;7.668;2023-01-28T06:36:11;102245.16;;;8.08;46.05
29383;BME280;16365;51.598;7.668;2023-01-28T06:38:37;102242.38;;;8.08;46.73
29383;BME280;16365;51.598;7.668;2023-01-28T06:41:03;102251.50;;;8.08;46.39
29383;BME280;16365;51.598;7.668;2023-01-28T06:43:30;102255.09;;;8.09;46.43
29383;BME280;16365;51.598;7.668;2023-01-28T06:45:57;102257.03;;;8.08;46.53
29383;BME280;16365;51.598;7.668;2023-01-28T06:48:24;102247.34;;;8.06;46.50
29383;BME280;16365;51.598;7.668;2023-01-28T06:50:51;102234.91;;;8.03;46.20
29383;BME280;16365;51.598;7.668;2023-01-28T06:53:18;102242.38;;;8.03;46.88
29383;BME280;16365;51.598;7.668;2023-01-28T06:55:44;102252.56;;;8.02;46.16
29383;BME280;16365;51.598;7.668;2023-01-28T06:58:11;102257.53;;;8.00;46.92
29383;BME280;16365;51.598;7.668;2023-01-28T07:00:37;102251.47;;;7.98;46.30
29383;BME280;16365;51.598;7.668;2023-01-28T07:03:05;102239.84;;;7.96;46.64
29383;BME280;16365;51.598;7.668;2023-01-28T07:05:32;102227.44;;;7.93;46.04
29383;BME280;16365;51.598;7.668;2023-01-28T07:07:58;102234.31;;;7.91;46.41
29383;BME280;16365;51.598;7.668;2023-01-28T07:10:28;102248.41;;;7.89;46.61
29383;BME280;16365;51.598;7.668;2023-01-28T07:12:55;102241.25;;;7.88;46.34
29383;BME280;16365;51.598;7.668;2023-01-28T07:15:21;102242.31;;;7.87;46.60
29383;BME280;16365;51.598;7.668;2023-01-28T07:17:47;102244.25;;;7.87;46.23
29383;BME280;16365;51.598;7.668;2023-01-28T07:20:14;102247.28;;;7.85;46.28
29383;BME280;16365;51.598;7.668;2023-01-28T07:22:41;102251.16;;;7.84;46.16
29383;BME280;16365;51.598;7.668;2023-01-28T07:25:09;102256.69;;;7.84;45.88
29383;BME280;16365;51.598;7.668;2023-01-28T07:27:36;102253.91;;;7.84;46.14
29383;BME280;16365;51.598;7.668;2023-01-28T07:30:02;102245.63;;;7.84;46.25
29383;BME280;16365;51.598;7.668;2023-01-28T07:32:29;102268.84;;;7.83;46.40
29383;BME280;16365;51.598;7.668;2023-01-28T07:34:56;102277.13;;;7.83;46.63
29383;BME280;16365;51.598;7.668;2023-01-28T07:37:22;102263.31;;;7.83;46.31
29383;BME280;16365;51.598;7.668;2023-01-28T07:39:50;102248.41;;;7.84;46.57
29383;BME280;16365;51.598;7.668;2023-01-28T07:42:17;102259.16;;;7.86;46.40
29383;BME280;16365;51.598;7.668;2023-01-28T07:44:43;102261.09;;;7.85;46.36
29383;BME280;16365;51.598;7.668;2023-01-28T07:47:11;102264.69;;;7.86;46.39
29383;BME280;16365;51.598;7.668;2023-01-28T07:49:38;102261.91;;;7.86;46.48
29383;BME280;16365;51.598;7.668;2023-01-28T07:52:07;102265.50;;;7.86;46.84
29383;BME280;16365;51.598;7.668;2023-01-28T07:54:34;102262.75;;;7.86;46.48
29383;BME280;16365;51.598;7.668;2023-01-28T07:57:00;102262.75;;;7.86;46.01
29383;BME280;16365;51.598;7.668;2023-01-28T07:59:27;102271.84;;;7.87;46.57
29383;BME280;16365;51.598;7.668;2023-01-28T08:01:53;102274.63;;;7.87;46.17
29383;BME280;16365;51.598;7.668;2023-01-28T08:04:20;102266.34;;;7.87;46.62
29383;BME280;16365;51.598;7.668;2023-01-28T08:06:47;102266.09;;;7.88;46.53
29383;BME280;16365;51.598;7.668;2023-01-28T08:09:14;102274.09;;;7.90;46.36
29383;BME280;16365;51.598;7.668;2023-01-28T08:11:41;102286.78;;;7.91;46.69
29383;BME280;16365;51.598;7.668;2023-01-28T08:14:09;102290.97;;;7.93;46.55
29383;BME280;16365;51.598;7.668;2023-01-28T08:16:35;102295.09;;;7.96;46.54
29383;BME280;16365;51.598;7.668;2023-01-28T08:19:01;102303.09;;;7.97;46.16
29383;BME280;16365;51.598;7.668;2023-01-28T08:21:28;102306.44;;;7.99;46.29
29383;BME280;16365;51.598;7.668;2023-01-28T08:23:54;102305.91;;;8.03;46.12
29383;BME280;16365;51.598;7.668;2023-01-28T08:26:21;102304.50;;;8.05;46.27
29383;BME280;16365;51.598;7.668;2023-01-28T08:28:48;102306.75;;;8.08;46.09
29383;BME280;16365;51.598;7.668;2023-01-28T08:31:16;102306.19;;;8.11;46.14
29383;BME280;16365;51.598;7.668;2023-01-28T08:33:44;102312.81;;;8.15;46.76
29383;BME280;16365;51.598;7.668;2023-01-28T08:36:10;102316.16;;;8.17;46.27
29383;BME280;16365;51.598;7.668;2023-01-28T08:38:36;102320.28;;;8.20;46.36
29383;BME280;16365;51.598;7.668;2023-01-28T08:41:03;102325.28;;;8.23;46.44
29383;BME280;16365;51.598;7.668;2023-01-28T08:43:29;102336.88;;;8.25;46.89
29383;BME280;16365;51.598;7.668;2023-01-28T08:45:56;102346.56;;;8.28;46.85
29383;BME280;16365;51.598;7.668;2023-01-28T08:48:22;102339.13;;;8.28;46.88
29383;BME280;16365;51.598;7.668;2023-01-28T08:50:48;102338.84;;;8.30;46.26
29383;BME280;16365;51.598;7.668;2023-01-28T08:53:16;102348.78;;;8.31;47.10
29383;BME280;16365;51.598;7.668;2023-01-28T08:55:44;102355.13;;;8.31;46.07
29383;BME280;16365;51.598;7.668;2023-01-28T08:58:14;102357.34;;;8.34;46.15
29383;BME280;16365;51.598;7.668;2023-01-28T09:00:41;102363.47;;;8.36;46.82
29383;BME280;16365;51.598;7.668;2023-01-28T09:03:08;102370.66;;;8.37;46.49
29383;BME280;16365;51.598;7.668;2023-01-28T09:05:35;102375.38;;;8.37;46.89
29383;BME280;16365;51.598;7.668;2023-01-28T09:08:03;102371.22;;;8.39;46.82
29383;BME280;16365;51.598;7.668;2023-01-28T09:10:30;102370.09;;;8.40;46.55
29383;BME280;16365;51.598;7.668;2023-01-28T09:12:56;102379.53;;;8.44;46.36
29383;BME280;16365;51.598;7.668;2023-01-28T09:15:23;102379.25;;;8.46;46.61
29383;BME280;16365;51.598;7.668;2023-01-28T09:17:49;102383.69;;;8.47;45.94
29383;BME280;16365;51.598;7.668;2023-01-28T09:20:22;102377.88;;;8.48;45.25
29383;BME280;16365;51.598;7.668;2023-01-28T09:22:50;102376.50;;;8.51;45.57
29383;BME280;16365;51.598;7.668;2023-01-28T09:25:23;102372.63;;;8.52;46.29
29383;BME280;16365;51.598;7.668;2023-01-28T09:27:49;102376.22;;;8.53;45.87
29383;BME280;16365;51.598;7.668;2023-01-28T09:30:16;102394.19;;;8.55;45.20
29383;BME280;16365;51.598;7.668;2023-01-28T09:32:43;102401.41;;;8.56;46.12
29383;BME280;16365;51.598;7.668;2023-01-28T09:35:09;102400.28;;;8.57;46.68
29383;BME280;16365;51.598;7.668;2023-01-28T09:37:36;102392.25;;;8.56;45.95
29383;BME280;16365;51.598;7.668;2023-01-28T09:40:02;102398.06;;;8.54;46.44
29383;BME280;16365;51.598;7.668;2023-01-28T09:45:16;102399.16;;;8.48;45.82
29383;BME280;16365;51.598;7.668;2023-01-28T09:47:51;102398.59;;;8.46;46.26
29383;BME280;16365;51.598;7.668;2023-01-28T09:52:44;102408.81;;;8.45;46.54
29383;BME280;16365;51.598;7.668;2023-01-28T09:55:30;102419.63;;;8.47;46.38
29383;BME280;16365;51.598;7.668;2023-01-28T09:57:57;102419.34;;;8.48;45.77
29383;BME280;16365;51.598;7.668;2023-01-28T10:00:25;102421.81;;;8.50;45.93
29383;BME280;16365;51.598;7.668;2023-01-28T10:03:04;102415.22;;;8.51;46.37
29383;BME280;16365;51.598;7.668;2023-01-28T10:15:49;102405.81;;;8.52;45.34
29383;BME280;16365;51.598;7.668;2023-01-28T10:18:21;102399.19;;;8.53;45.65
29383;BME280;16365;51.598;7.668;2023-01-28T10:20:53;102403.31;;;8.56;45.45
29383;BME280;16365;51.598;7.668;2023-01-28T10:23:23;102394.47;;;8.59;45.61
29383;BME280;16365;51.598;7.668;2023-01-28T10:25:51;102394.22;;;8.65;45.41
29383;BME280;16365;51.598;7.668;2023-01-28T10:28:21;102385.66;;;8.72;45.07
29383;BME280;16365;51.598;7.668;2023-01-28T10:30:49;102380.13;;;8.77;45.34
29383;BME280;16365;51.598;7.668;2023-01-28T10:36:01;102369.38;;;8.96;45.10
29383;BME280;16365;51.598;7.668;2023-01-28T10:38:28;102387.91;;;9.06;46.14
29383;BME280;16365;51.598;7.668;2023-01-28T10:40:57;102384.03;;;9.12;45.32
29383;BME280;16365;51.598;7.668;2023-01-28T10:43:25;102381.25;;;9.17;44.59
29383;BME280;16365;51.598;7.668;2023-01-28T10:48:36;102381.00;;;9.23;45.36
29383;BME280;16365;51.598;7.668;2023-01-28T10:51:05;102382.38;;;9.21;46.04
29383;BME280;16365;51.598;7.668;2023-01-28T10:53:35;102377.13;;;9.19;45.80
29383;BME280;16365;51.598;7.668;2023-01-28T10:56:09;102382.06;;;9.17;45.96
29383;BME280;16365;51.598;7.668;2023-01-28T10:58:48;102393.72;;;9.14;45.90
29383;BME280;16365;51.598;7.668;2023-01-28T11:01:15;102395.38;;;9.10;45.08
29383;BME280;16365;51.598;7.668;2023-01-28T11:03:50;102401.75;;;9.06;45.52
29383;BME280;16365;51.598;7.668;2023-01-28T11:06:26;102400.09;;;9.05;45.97
29383;BME280;16365;51.598;7.668;2023-01-28T11:08:53;102410.88;;;9.01;45.54
29383;BME280;16365;51.598;7.668;2023-01-28T11:11:25;102409.22;;;9.00;46.00
29383;BME280;16365;51.598;7.668;2023-01-28T11:13:53;102412.50;;;8.97;45.22
29383;BME280;16365;51.598;7.668;2023-01-28T11:16:20;102416.38;;;8.96;45.49
29383;BME280;16365;51.598;7.668;2023-01-28T11:18:48;102412.22;;;8.93;45.35
29383;BME280;16365;51.598;7.668;2023-01-28T11:21:17;102416.09;;;8.92;45.03
29383;BME280;16365;51.598;7.668;2023-01-28T11:24:01;102404.22;;;8.92;45.23
29383;BME280;16365;51.598;7.668;2023-01-28T11:26:29;102415.28;;;8.92;44.95
29383;BME280;16365;51.598;7.668;2023-01-28T11:28:57;102414.16;;;8.93;45.09
29383;BME280;16365;51.598;7.668;2023-01-28T11:31:23;102423.28;;;8.93;44.98
29383;BME280;16365;51.598;7.668;2023-01-28T11:33:53;102416.66;;;8.94;45.17
29383;BME280;16365;51.598;7.668;2023-01-28T11:36:25;102403.69;;;8.95;45.77
29383;BME280;16365;51.598;7.668;2023-01-28T11:38:53;102400.91;;;8.95;45.36
29383;BME280;16365;51.598;7.668;2023-01-28T11:41:25;102399.50;;;8.92;45.22
29383;BME280;16365;51.598;7.668;2023-01-28T11:43:52;102400.34;;;8.88;44.81
29383;BME280;16365;51.598;7.668;2023-01-28T11:51:34;102387.31;;;8.78;45.34
29383;BME280;16365;51.598;7.668;2023-01-28T11:56:45;102385.66;;;8.72;44.84
29383;BME280;16365;51.598;7.668;2023-01-28T12:04:54;102397.25;;;8.69;45.14
29383;BME280;16365;51.598;7.668;2023-01-28T12:07:36;102377.09;;;8.68;44.72
29383;BME280;16365;51.598;7.668;2023-01-28T12:20:39;102356.06;;;8.62;44.52
29383;BME280;16365;51.598;7.668;2023-01-28T12:33:44;102335.88;;;8.72;44.65
29383;BME280;16365;51.598;7.668;2023-01-28T12:36:24;102342.78;;;8.74;45.17
29383;BME280;16365;51.598;7.668;2023-01-28T12:41:22;102322.06;;;8.77;44.51
29383;BME280;16365;51.598;7.668;2023-01-28T12:46:21;102284.19;;;8.83;43.82
29383;BME280;16365;51.598;7.668;2023-01-28T12:48:57;102265.34;;;8.85;43.18
29383;BME280;16365;51.598;7.668;2023-01-28T12:51:31;102256.78;;;8.86;43.46
29383;BME280;16365;51.598;7.668;2023-01-28T12:54:00;102257.63;;;8.87;43.84
29383;BME280;16365;51.598;7.668;2023-01-28T12:56:32;102251.56;;;8.90;44.26
29383;BME280;16365;51.598;7.668;2023-01-28T12:59:02;102229.69;;;8.88;44.18
29383;BME280;16365;51.598;7.668;2023-01-28T13:01:36;102235.22;;;8.88;44.11
29383;BME280;16365;51.598;7.668;2023-01-28T13:04:17;102236.88;;;8.84;43.86
29383;BME280;16365;51.598;7.668;2023-01-28T13:09:16;102260.69;;;8.80;44.98
29383;BME280;16365;51.598;7.668;2023-01-28T13:11:43;102267.59;;;8.78;44.85
29383;BME280;16365;51.598;7.668;2023-01-28T13:14:10;102261.22;;;8.77;44.75
29383;BME280;16365;51.598;7.668;2023-01-28T13:16:38;102259.56;;;8.76;44.27
29383;BME280;16365;51.598;7.668;2023-01-28T13:19:06;102270.63;;;8.76;44.02
29383;BME280;16365;51.598;7.668;2023-01-28T13:21:33;102267.88;;;8.76;44.62
29383;BME280;16365;51.598;7.668;2023-01-28T13:29:21;;;;8.76;
29383;BME280;16365;51.598;7.668;2023-01-28T13:31:54;102260.41;;;8.77;44.02
29383;BME280;16365;51.598;7.668;2023-01-28T13:34:27;102271.47;;;8.77;43.69
29383;BME280;16365;51.598;7.668;2023-01-28T13:37:00;102269.81;;;8.75;43.93
29383;BME280;16365;51.598;7.668;2023-01-28T13:39:30;102267.59;;;8.72;43.59
29383;BME280;16365;51.598;7.668;2023-01-28T13:42:19;102284.47;;;8.71;43.60
29383;BME280;16365;51.598;7.668;2023-01-28T13:44:46;102300.50;;;8.69;43.58
29383;BME280;16365;51.598;7.668;2023-01-28T13:47:20;102302.72;;;8.67;43.48
29383;BME280;16365;51.598;7.668;2023-01-28T13:50:22;102293.03;;;8.64;43.84
29383;BME280;16365;51.598;7.668;2023-01-28T13:52:57;102303.53;;;8.62;44.36
29383;BME280;16365;51.598;7.668;2023-01-28T13:55:34;102288.31;;;8.60;43.48
29383;BME280;16365;51.598;7.668;2023-01-28T14:01:00;102324.53;;;8.63;44.19
29383;BME280;16365;51.598;7.668;2023-01-28T14:06:12;102313.78;;;8.67;44.88
29383;BME280;16365;51.598;7.668;2023-01-28T14:08:48;102319.00;;;8.68;44.39
29383;BME280;16365;51.598;7.668;2023-01-28T14:16:29;102310.44;;;8.70;43.95
29383;BME280;16365;51.598;7.668;2023-01-28T14:18:59;102308.78;;;8.69;44.32
29383;BME280;16365;51.598;7.668;2023-01-28T14:21:26;102294.13;;;8.68;43.84
29383;BME280;16365;51.598;7.668;2023-01-28T14:23:54;102286.13;;;8.67;44.34
29383;BME280;16365;51.598;7.668;2023-01-28T14:29:35;102272.31;;;8.62;43.98
29383;BME280;16365;51.598;7.668;2023-01-28T14:32:04;102250.72;;;8.59;43.80
29383;BME280;16365;51.598;7.668;2023-01-28T14:34:31;102249.06;;;8.58;44.28
29383;BME280;16365;51.598;7.668;2023-01-28T14:37:00;102232.50;;;8.58;44.49
29383;BME280;16365;51.598;7.668;2023-01-28T14:39:30;102231.66;;;8.57;44.32
29383;BME280;16365;51.598;7.668;2023-01-28T14:41:58;102236.63;;;8.55;44.02
29383;BME280;16365;51.598;7.668;2023-01-28T14:46:56;102229.72;;;8.53;43.83
29383;BME280;16365;51.598;7.668;2023-01-28T14:49:34;102230.84;;;8.52;43.73
29383;BME280;16365;51.598;7.668;2023-01-28T14:54:46;102255.72;;;8.52;44.19